createdAt,value
2019-06-01T00:05:05.352Z,64.24
2019-06-01T00:15:06.893Z,64.40
2019-06-01T00:25:08.389Z,65.04
2019-06-01T00:35:09.773Z,64.35
2019-06-01T00:45:11.402Z,64.13
2019-06-01T00:55:12.587Z,64.03
2019-06-01T01:05:16.521Z,64.29
2019-06-01T01:15:18.620Z,65.39
2019-06-01T01:25:19.706Z,65.47
2019-06-01T01:35:21.128Z,65.60
2019-06-01T01:45:22.355Z,66.51
2019-06-01T01:55:23.354Z,66.92
2019-06-01T02:05:24.452Z,66.84
2019-06-01T02:15:25.589Z,66.74
2019-06-01T02:25:26.707Z,66.37
2019-06-01T02:35:27.746Z,66.46
2019-06-01T02:45:28.963Z,66.40
2019-06-01T02:55:30.072Z,66.21
2019-06-01T03:05:31.708Z,66.15
2019-06-01T03:15:35.552Z,66.30
2019-06-01T03:25:38.254Z,67.23
2019-06-01T03:35:39.262Z,66.88
2019-06-01T03:45:40.287Z,66.61
2019-06-01T03:55:41.342Z,67.18
2019-06-01T04:05:42.379Z,66.68
2019-06-01T04:15:43.396Z,66.24
2019-06-01T04:25:44.380Z,65.65
2019-06-01T04:35:45.409Z,65.27
2019-06-01T04:45:46.523Z,64.63
2019-06-01T04:55:47.511Z,63.16
2019-06-01T05:05:48.532Z,62.83
2019-06-01T05:15:49.574Z,61.53
2019-06-01T05:25:53.277Z,60.11
2019-06-01T05:35:53.591Z,58.21
2019-06-01T05:45:55.584Z,56.19
2019-06-01T05:55:56.582Z,52.54
2019-06-01T06:05:57.619Z,22.24
2019-06-01T06:15:58.659Z,14.75
2019-06-01T06:25:59.769Z,10.79
2019-06-01T06:36:00.807Z,9.80
2019-06-01T06:46:01.922Z,8.14
2019-06-01T06:56:03.903Z,7.19
2019-06-01T07:06:04.941Z,6.23
2019-06-01T07:16:06.102Z,5.47
2019-06-01T07:26:07.112Z,5.37
2019-06-01T07:36:08.321Z,5.23
2019-06-01T07:46:10.642Z,4.99
2019-06-01T07:56:11.753Z,4.80
2019-06-01T08:06:12.813Z,4.14
2019-06-01T08:16:13.872Z,3.81
2019-06-01T08:26:14.971Z,3.33
2019-06-01T08:36:15.996Z,3.19
2019-06-01T08:46:17.256Z,3.16
2019-06-01T08:56:21.839Z,3.76
2019-06-01T09:06:21.437Z,3.11
2019-06-01T09:16:22.498Z,2.63
2019-06-01T09:26:26.268Z,3.02
2019-06-01T09:36:28.340Z,4.32
2019-06-01T09:46:31.958Z,4.86
2019-06-01T09:56:35.505Z,4.78
2019-06-01T10:06:36.746Z,4.23
2019-06-01T10:16:38.884Z,4.36
2019-06-01T10:26:40.059Z,4.70
2019-06-01T10:36:42.200Z,4.57
2019-06-01T10:46:43.307Z,4.98
2019-06-01T10:56:44.448Z,5.48
2019-06-01T11:06:48.607Z,7.85
2019-06-01T11:16:55.683Z,15.54
2019-06-01T11:26:51.409Z,19.69
2019-06-01T11:37:04.925Z,20.15
2019-06-01T11:46:56.612Z,20.58
2019-06-01T11:56:57.606Z,20.10
2019-06-01T12:07:16.442Z,20.48
2019-06-01T12:17:02.909Z,21.33
2019-06-01T12:27:04.121Z,21.00
2019-06-01T12:37:05.259Z,19.69
2019-06-01T12:47:06.552Z,20.44
2019-06-01T12:57:07.594Z,20.51
2019-06-01T13:07:08.755Z,19.03
2019-06-01T13:17:09.809Z,18.72
2019-06-01T13:27:10.822Z,20.02
2019-06-01T13:37:11.847Z,19.77
2019-06-01T13:47:12.900Z,17.34
2019-06-01T13:57:14.653Z,18.97
2019-06-01T14:07:15.834Z,18.23
2019-06-01T14:17:17.021Z,19.21
2019-06-01T14:27:18.142Z,18.65
2019-06-01T14:37:19.174Z,18.99
2019-06-01T14:47:22.230Z,17.30
2019-06-01T14:57:23.367Z,17.41
2019-06-01T15:07:24.395Z,17.77
2019-06-01T15:17:25.905Z,16.86
2019-06-01T15:27:26.965Z,18.06
2019-06-01T15:37:28.086Z,17.77
2019-06-01T15:47:29.175Z,18.32
2019-06-01T15:57:30.191Z,19.20
2019-06-01T16:07:31.292Z,19.40
2019-06-01T16:17:32.297Z,19.79
2019-06-01T16:27:33.442Z,20.10
2019-06-01T16:37:34.449Z,21.98
2019-06-01T16:47:35.460Z,21.85
2019-06-01T16:57:36.699Z,22.81
2019-06-01T17:07:37.822Z,23.99
2019-06-01T17:17:38.944Z,25.04
2019-06-01T17:27:40.950Z,25.43
2019-06-01T17:37:41.949Z,25.53
2019-06-01T17:47:42.959Z,25.96
2019-06-01T17:57:43.983Z,27.09
2019-06-01T18:07:44.994Z,27.70
2019-06-01T18:17:47.319Z,28.41
2019-06-01T18:27:48.639Z,29.73
2019-06-01T18:37:53.655Z,32.02
2019-06-01T18:47:54.945Z,33.13
2019-06-01T18:57:58.457Z,34.45
2019-06-01T19:08:01.988Z,35.95
2019-06-01T19:18:04.107Z,37.69
2019-06-01T19:28:05.120Z,38.68
2019-06-01T19:38:07.041Z,39.50
2019-06-01T19:48:09.909Z,40.47
2019-06-01T19:58:12.120Z,41.29
2019-06-01T20:08:14.275Z,42.20
2019-06-01T20:18:16.951Z,43.06
2019-06-01T20:28:19.537Z,44.16
2019-06-01T20:38:20.761Z,44.98
2019-06-01T20:48:22.942Z,45.23
2019-06-01T20:58:24.975Z,46.10
2019-06-01T21:08:26.556Z,46.84
2019-06-01T21:18:27.674Z,47.14
2019-06-01T21:28:28.688Z,47.92
2019-06-01T21:38:29.915Z,48.84
2019-06-01T21:48:31.164Z,49.79
2019-06-01T21:58:32.326Z,51.86
2019-06-01T22:08:33.351Z,52.40
2019-06-01T22:18:34.384Z,52.53
2019-06-01T22:28:35.490Z,53.93
2019-06-01T22:38:36.538Z,54.34
2019-06-01T22:48:37.589Z,55.49
2019-06-01T22:58:39.431Z,55.86
2019-06-01T23:08:40.796Z,56.60
2019-06-01T23:18:41.854Z,57.21
2019-06-01T23:28:43.117Z,57.44
2019-06-01T23:38:44.179Z,58.11
2019-06-01T23:48:46.260Z,59.11
2019-06-01T23:58:47.556Z,59.31
